sensor_id;sensor_type;location;lat;lon;timestamp;temperature;humidity
51853;DHT22;37894;53.172;6.598;2023-03-15T00:01:10;2.00;99.90
51853;DHT22;37894;53.172;6.598;2023-03-15T00:03:39;2.90;99.90
51853;DHT22;37894;53.172;6.598;2023-03-15T00:10:58;2.60;99.90
51853;DHT22;37894;53.172;6.598;2023-03-15T00:13:24;2.70;99.90
51853;DHT22;37894;53.172;6.598;2023-03-15T00:15:52;2.80;99.90
51853;DHT22;37894;53.172;6.598;2023-03-15T00:18:20;2.80;99.90
51853;DHT22;37894;53.172;6.598;2023-03-15T00:20:46;2.10;99.90
51853;DHT22;37894;53.172;6.598;2023-03-15T00:23:13;2.60;99.90
51853;DHT22;37894;53.172;6.598;2023-03-15T00:25:42;2.20;99.90
51853;DHT22;37894;53.172;6.598;2023-03-15T00:32:59;1.70;99.90
51853;DHT22;37894;53.172;6.598;2023-03-15T00:37:55;2.60;99.90
51853;DHT22;37894;53.172;6.598;2023-03-15T00:40:22;2.20;99.90
51853;DHT22;37894;53.172;6.598;2023-03-15T00:42:48;2.50;99.90
51853;DHT22;37894;53.172;6.598;2023-03-15T00:45:18;2.50;99.90
51853;DHT22;37894;53.172;6.598;2023-03-15T00:47:43;2.40;99.90
51853;DHT22;37894;53.172;6.598;2023-03-15T00:50:09;2.50;99.90
51853;DHT22;37894;53.172;6.598;2023-03-15T00:52:36;2.30;99.90
51853;DHT22;37894;53.172;6.598;2023-03-15T00:55:03;2.20;99.90
51853;DHT22;37894;53.172;6.598;2023-03-15T00:57:31;2.40;99.90
51853;DHT22;37894;53.172;6.598;2023-03-15T01:02:22;2.10;99.90
51853;DHT22;37894;53.172;6.598;2023-03-15T01:04:49;3.90;99.90
51853;DHT22;37894;53.172;6.598;2023-03-15T01:07:15;2.10;99.90
51853;DHT22;37894;53.172;6.598;2023-03-15T01:09:41;1.30;99.90
51853;DHT22;37894;53.172;6.598;2023-03-15T01:12:09;3.20;99.90
51853;DHT22;37894;53.172;6.598;2023-03-15T01:14:35;3.00;99.90
51853;DHT22;37894;53.172;6.598;2023-03-15T01:19:29;2.30;99.90
51853;DHT22;37894;53.172;6.598;2023-03-15T01:21:55;2.40;99.90
51853;DHT22;37894;53.172;6.598;2023-03-15T01:26:47;1.90;99.90
51853;DHT22;37894;53.172;6.598;2023-03-15T01:29:12;2.40;99.90
51853;DHT22;37894;53.172;6.598;2023-03-15T01:31:38;2.00;99.90
51853;DHT22;37894;53.172;6.598;2023-03-15T01:34:04;1.90;99.90
51853;DHT22;37894;53.172;6.598;2023-03-15T01:36:30;2.30;99.90
51853;DHT22;37894;53.172;6.598;2023-03-15T01:38:56;2.10;99.90
51853;DHT22;37894;53.172;6.598;2023-03-15T01:41:22;2.50;99.90
51853;DHT22;37894;53.172;6.598;2023-03-15T01:43:50;2.00;99.90
51853;DHT22;37894;53.172;6.598;2023-03-15T01:57:15;2.10;99.90
51853;DHT22;37894;53.172;6.598;2023-03-15T01:59:49;2.70;99.90
51853;DHT22;37894;53.172;6.598;2023-03-15T02:04:49;2.00;99.90
51853;DHT22;37894;53.172;6.598;2023-03-15T02:07:17;1.70;99.90
51853;DHT22;37894;53.172;6.598;2023-03-15T02:09:49;2.80;99.90
51853;DHT22;37894;53.172;6.598;2023-03-15T02:12:19;1.90;99.90
51853;DHT22;37894;53.172;6.598;2023-03-15T02:17:11;0.80;99.90
51853;DHT22;37894;53.172;6.598;2023-03-15T02:20:07;1.60;99.90
51853;DHT22;37894;53.172;6.598;2023-03-15T02:22:57;1.50;99.90
51853;DHT22;37894;53.172;6.598;2023-03-15T02:25:31;1.10;99.90
51853;DHT22;37894;53.172;6.598;2023-03-15T02:28:02;0.70;99.90
51853;DHT22;37894;53.172;6.598;2023-03-15T02:30:28;2.40;99.90
51853;DHT22;37894;53.172;6.598;2023-03-15T02:32:54;1.60;99.90
51853;DHT22;37894;53.172;6.598;2023-03-15T02:35:30;1.60;99.90
51853;DHT22;37894;53.172;6.598;2023-03-15T02:37:57;1.20;99.90
51853;DHT22;37894;53.172;6.598;2023-03-15T02:40:24;1.40;99.90
51853;DHT22;37894;53.172;6.598;2023-03-15T02:45:49;1.30;99.90
51853;DHT22;37894;53.172;6.598;2023-03-15T02:48:16;2.40;99.90
51853;DHT22;37894;53.172;6.598;2023-03-15T02:53:08;0.60;99.90
51853;DHT22;37894;53.172;6.598;2023-03-15T02:58:01;1.40;99.90
51853;DHT22;37894;53.172;6.598;2023-03-15T03:00:27;1.30;99.90
51853;DHT22;37894;53.172;6.598;2023-03-15T03:02:54;1.20;99.90
51853;DHT22;37894;53.172;6.598;2023-03-15T03:05:20;1.20;99.90
51853;DHT22;37894;53.172;6.598;2023-03-15T03:07:46;1.30;99.90
51853;DHT22;37894;53.172;6.598;2023-03-15T03:10:15;1.40;99.90
51853;DHT22;37894;53.172;6.598;2023-03-15T03:15:09;1.10;99.90
51853;DHT22;37894;53.172;6.598;2023-03-15T03:17:35;-0.10;99.90
51853;DHT22;37894;53.172;6.598;2023-03-15T03:20:06;2.30;99.90
51853;DHT22;37894;53.172;6.598;2023-03-15T03:22:35;1.10;99.90
51853;DHT22;37894;53.172;6.598;2023-03-15T03:25:02;1.00;99.90
51853;DHT22;37894;53.172;6.598;2023-03-15T03:27:29;2.20;99.90
51853;DHT22;37894;53.172;6.598;2023-03-15T03:29:55;1.40;99.90
51853;DHT22;37894;53.172;6.598;2023-03-15T03:32:20;0.80;99.90
51853;DHT22;37894;53.172;6.598;2023-03-15T03:34:46;1.20;99.90
51853;DHT22;37894;53.172;6.598;2023-03-15T03:37:19;1.00;99.90
51853;DHT22;37894;53.172;6.598;2023-03-15T03:39:45;1.20;99.90
51853;DHT22;37894;53.172;6.598;2023-03-15T03:42:11;2.10;99.90
51853;DHT22;37894;53.172;6.598;2023-03-15T03:44:37;0.90;99.90
51853;DHT22;37894;53.172;6.598;2023-03-15T03:49:29;0.90;99.90
51853;DHT22;37894;53.172;6.598;2023-03-15T03:51:54;0.70;99.90
51853;DHT22;37894;53.172;6.598;2023-03-15T03:54:20;0.30;99.90
51853;DHT22;37894;53.172;6.598;2023-03-15T03:56:47;1.40;99.90
51853;DHT22;37894;53.172;6.598;2023-03-15T03:59:13;1.00;99.90
51853;DHT22;37894;53.172;6.598;2023-03-15T04:01:39;1.60;99.90
51853;DHT22;37894;53.172;6.598;2023-03-15T04:04:07;0.80;99.90
51853;DHT22;37894;53.172;6.598;2023-03-15T04:06:33;0.40;99.90
51853;DHT22;37894;53.172;6.598;2023-03-15T04:08:59;1.00;99.90
51853;DHT22;37894;53.172;6.598;2023-03-15T04:16:20;0.90;99.90
51853;DHT22;37894;53.172;6.598;2023-03-15T04:18:46;0.50;99.90
51853;DHT22;37894;53.172;6.598;2023-03-15T04:21:12;0.50;99.90
51853;DHT22;37894;53.172;6.598;2023-03-15T04:23:37;1.00;99.90
51853;DHT22;37894;53.172;6.598;2023-03-15T04:28:33;0.80;99.90
51853;DHT22;37894;53.172;6.598;2023-03-15T04:33:25;1.20;99.90
51853;DHT22;37894;53.172;6.598;2023-03-15T04:35:51;0.60;99.90
51853;DHT22;37894;53.172;6.598;2023-03-15T04:38:18;0.60;99.90
51853;DHT22;37894;53.172;6.598;2023-03-15T04:40:44;1.40;99.90
51853;DHT22;37894;53.172;6.598;2023-03-15T04:45:36;0.40;99.90
51853;DHT22;37894;53.172;6.598;2023-03-15T04:48:02;0.50;99.90
51853;DHT22;37894;53.172;6.598;2023-03-15T04:50:28;0.50;99.90
51853;DHT22;37894;53.172;6.598;2023-03-15T04:52:56;-0.40;99.90
51853;DHT22;37894;53.172;6.598;2023-03-15T04:55:22;0.50;99.90
51853;DHT22;37894;53.172;6.598;2023-03-15T04:57:47;-0.10;99.90
51853;DHT22;37894;53.172;6.598;2023-03-15T05:02:40;0.00;99.90
51853;DHT22;37894;53.172;6.598;2023-03-15T05:05:12;0.30;99.90
51853;DHT22;37894;53.172;6.598;2023-03-15T05:07:38;0.10;99.90
51853;DHT22;37894;53.172;6.598;2023-03-15T05:10:05;0.00;99.90
51853;DHT22;37894;53.172;6.598;2023-03-15T05:12:31;0.10;99.90
51853;DHT22;37894;53.172;6.598;2023-03-15T05:14:58;0.10;99.90
51853;DHT22;37894;53.172;6.598;2023-03-15T05:17:24;-0.20;99.90
51853;DHT22;37894;53.172;6.598;2023-03-15T05:22:16;1.10;99.90
51853;DHT22;37894;53.172;6.598;2023-03-15T05:27:09;-0.80;99.90
51853;DHT22;37894;53.172;6.598;2023-03-15T05:29:36;0.00;99.90
51853;DHT22;37894;53.172;6.598;2023-03-15T05:34:29;-0.40;99.90
51853;DHT22;37894;53.172;6.598;2023-03-15T05:36:57;-0.10;99.90
51853;DHT22;37894;53.172;6.598;2023-03-15T05:41:49;-0.80;99.90
51853;DHT22;37894;53.172;6.598;2023-03-15T05:46:41;-0.20;99.90
51853;DHT22;37894;53.172;6.598;2023-03-15T05:49:07;0.80;99.90
51853;DHT22;37894;53.172;6.598;2023-03-15T05:51:33;-0.10;99.90
51853;DHT22;37894;53.172;6.598;2023-03-15T05:53:59;-0.30;99.90
51853;DHT22;37894;53.172;6.598;2023-03-15T05:58:50;-0.50;99.90
51853;DHT22;37894;53.172;6.598;2023-03-15T06:03:42;0.40;99.90
51853;DHT22;37894;53.172;6.598;2023-03-15T06:11:00;0.60;99.90
51853;DHT22;37894;53.172;6.598;2023-03-15T06:13:26;0.20;99.90
51853;DHT22;37894;53.172;6.598;2023-03-15T06:15:52;0.40;99.90
51853;DHT22;37894;53.172;6.598;2023-03-15T06:18:17;0.50;99.90
51853;DHT22;37894;53.172;6.598;2023-03-15T06:23:10;0.60;99.90
51853;DHT22;37894;53.172;6.598;2023-03-15T06:25:36;1.00;99.90
51853;DHT22;37894;53.172;6.598;2023-03-15T06:28:01;-0.40;99.90
51853;DHT22;37894;53.172;6.598;2023-03-15T06:30:27;1.20;99.90
51853;DHT22;37894;53.172;6.598;2023-03-15T06:32:54;0.50;99.90
51853;DHT22;37894;53.172;6.598;2023-03-15T06:35:19;0.70;99.90
51853;DHT22;37894;53.172;6.598;2023-03-15T06:37:46;0.30;99.90
51853;DHT22;37894;53.172;6.598;2023-03-15T06:45:06;0.70;99.90
51853;DHT22;37894;53.172;6.598;2023-03-15T06:49:59;0.00;99.90
51853;DHT22;37894;53.172;6.598;2023-03-15T06:52:25;0.90;99.90
51853;DHT22;37894;53.172;6.598;2023-03-15T06:54:52;1.20;99.90
51853;DHT22;37894;53.172;6.598;2023-03-15T06:57:18;1.10;99.90
51853;DHT22;37894;53.172;6.598;2023-03-15T06:59:43;1.20;99.90
51853;DHT22;37894;53.172;6.598;2023-03-15T07:02:16;1.10;99.90
51853;DHT22;37894;53.172;6.598;2023-03-15T07:07:10;1.00;99.90
51853;DHT22;37894;53.172;6.598;2023-03-15T07:09:36;1.20;99.90
51853;DHT22;37894;53.172;6.598;2023-03-15T07:12:02;1.50;99.90
51853;DHT22;37894;53.172;6.598;2023-03-15T07:16:54;1.20;99.90
51853;DHT22;37894;53.172;6.598;2023-03-15T07:21:45;1.80;99.90
51853;DHT22;37894;53.172;6.598;2023-03-15T07:24:11;1.40;99.90
51853;DHT22;37894;53.172;6.598;2023-03-15T07:26:37;1.90;99.90
51853;DHT22;37894;53.172;6.598;2023-03-15T07:29:02;1.30;99.90
51853;DHT22;37894;53.172;6.598;2023-03-15T07:33:54;1.60;99.90
51853;DHT22;37894;53.172;6.598;2023-03-15T07:41:13;1.80;99.90
51853;DHT22;37894;53.172;6.598;2023-03-15T07:43:38;1.40;99.90
51853;DHT22;37894;53.172;6.598;2023-03-15T07:46:04;2.40;99.90
51853;DHT22;37894;53.172;6.598;2023-03-15T07:50:58;2.40;99.90
51853;DHT22;37894;53.172;6.598;2023-03-15T07:53:24;2.20;99.90
51853;DHT22;37894;53.172;6.598;2023-03-15T07:55:50;2.60;99.90
51853;DHT22;37894;53.172;6.598;2023-03-15T07:58:16;2.20;99.90
51853;DHT22;37894;53.172;6.598;2023-03-15T08:03:08;3.20;99.90
51853;DHT22;37894;53.172;6.598;2023-03-15T08:05:34;3.00;99.90
51853;DHT22;37894;53.172;6.598;2023-03-15T08:10:26;3.20;99.90
51853;DHT22;37894;53.172;6.598;2023-03-15T08:12:52;3.00;99.90
51853;DHT22;37894;53.172;6.598;2023-03-15T08:15:18;3.30;99.90
51853;DHT22;37894;53.172;6.598;2023-03-15T08:17:46;3.80;99.90
51853;DHT22;37894;53.172;6.598;2023-03-15T08:22:46;3.40;99.90
51853;DHT22;37894;53.172;6.598;2023-03-15T08:25:13;3.50;99.90
51853;DHT22;37894;53.172;6.598;2023-03-15T08:27:40;3.70;99.90
51853;DHT22;37894;53.172;6.598;2023-03-15T08:30:11;3.70;99.90
51853;DHT22;37894;53.172;6.598;2023-03-15T08:32:38;3.90;99.90
51853;DHT22;37894;53.172;6.598;2023-03-15T08:35:07;4.90;99.90
51853;DHT22;37894;53.172;6.598;2023-03-15T08:37:34;5.10;99.90
51853;DHT22;37894;53.172;6.598;2023-03-15T08:40:00;3.80;99.90
51853;DHT22;37894;53.172;6.598;2023-03-15T08:42:29;4.40;99.90
51853;DHT22;37894;53.172;6.598;2023-03-15T08:47:24;4.90;99.90
51853;DHT22;37894;53.172;6.598;2023-03-15T08:49:50;4.70;99.90
51853;DHT22;37894;53.172;6.598;2023-03-15T08:52:18;4.60;99.90
51853;DHT22;37894;53.172;6.598;2023-03-15T08:57:10;5.00;99.90
51853;DHT22;37894;53.172;6.598;2023-03-15T08:59:37;6.00;99.90
51853;DHT22;37894;53.172;6.598;2023-03-15T09:02:03;5.10;99.90
51853;DHT22;37894;53.172;6.598;2023-03-15T09:04:30;4.90;99.90
51853;DHT22;37894;53.172;6.598;2023-03-15T09:06:56;5.40;99.90
51853;DHT22;37894;53.172;6.598;2023-03-15T09:09:22;4.80;99.90
51853;DHT22;37894;53.172;6.598;2023-03-15T09:11:48;5.20;99.90
51853;DHT22;37894;53.172;6.598;2023-03-15T09:14:14;4.60;99.90
51853;DHT22;37894;53.172;6.598;2023-03-15T09:16:39;5.00;99.90
51853;DHT22;37894;53.172;6.598;2023-03-15T09:19:05;5.10;99.90
51853;DHT22;37894;53.172;6.598;2023-03-15T09:23:57;5.60;99.90
51853;DHT22;37894;53.172;6.598;2023-03-15T09:26:22;5.30;99.90
51853;DHT22;37894;53.172;6.598;2023-03-15T09:31:14;6.10;99.90
51853;DHT22;37894;53.172;6.598;2023-03-15T09:33:40;6.10;99.90
51853;DHT22;37894;53.172;6.598;2023-03-15T09:36:06;5.90;99.90
51853;DHT22;37894;53.172;6.598;2023-03-15T09:38:32;5.70;99.90
51853;DHT22;37894;53.172;6.598;2023-03-15T09:40:58;5.60;99.90
51853;DHT22;37894;53.172;6.598;2023-03-15T09:46:21;5.50;99.90
51853;DHT22;37894;53.172;6.598;2023-03-15T09:51:42;6.20;99.90
51853;DHT22;37894;53.172;6.598;2023-03-15T09:54:22;6.40;99.90
51853;DHT22;37894;53.172;6.598;2023-03-15T09:56:55;6.30;99.90
51853;DHT22;37894;53.172;6.598;2023-03-15T09:59:31;6.30;99.90
51853;DHT22;37894;53.172;6.598;2023-03-15T10:02:00;6.30;99.90
51853;DHT22;37894;53.172;6.598;2023-03-15T10:04:30;6.50;99.90
51853;DHT22;37894;53.172;6.598;2023-03-15T10:07:01;6.60;99.90
51853;DHT22;37894;53.172;6.598;2023-03-15T10:09:29;6.90;99.90
51853;DHT22;37894;53.172;6.598;2023-03-15T10:12:20;6.50;99.90
51853;DHT22;37894;53.172;6.598;2023-03-15T10:20:15;7.50;99.90
51853;DHT22;37894;53.172;6.598;2023-03-15T10:23:04;7.00;99.90
51853;DHT22;37894;53.172;6.598;2023-03-15T10:25:33;7.20;99.90
51853;DHT22;37894;53.172;6.598;2023-03-15T10:28:12;7.30;99.90
51853;DHT22;37894;53.172;6.598;2023-03-15T10:30:46;7.40;99.90
51853;DHT22;37894;53.172;6.598;2023-03-15T10:35:38;7.50;99.90
51853;DHT22;37894;53.172;6.598;2023-03-15T10:38:14;7.60;99.90
51853;DHT22;37894;53.172;6.598;2023-03-15T10:40:45;7.50;99.90
51853;DHT22;37894;53.172;6.598;2023-03-15T10:43:16;7.70;99.90
51853;DHT22;37894;53.172;6.598;2023-03-15T10:45:46;7.90;99.90
51853;DHT22;37894;53.172;6.598;2023-03-15T10:50:49;8.30;99.90
51853;DHT22;37894;53.172;6.598;2023-03-15T10:53:18;8.40;99.90
51853;DHT22;37894;53.172;6.598;2023-03-15T10:56:06;8.80;99.90
51853;DHT22;37894;53.172;6.598;2023-03-15T10:58:46;8.80;99.90
51853;DHT22;37894;53.172;6.598;2023-03-15T11:01:24;8.90;99.90
51853;DHT22;37894;53.172;6.598;2023-03-15T11:04:05;9.00;99.90
51853;DHT22;37894;53.172;6.598;2023-03-15T11:06:46;8.80;99.90
51853;DHT22;37894;53.172;6.598;2023-03-15T11:09:18;8.80;99.90
51853;DHT22;37894;53.172;6.598;2023-03-15T11:11:58;9.20;99.90
51853;DHT22;37894;53.172;6.598;2023-03-15T11:14:28;9.40;99.90
51853;DHT22;37894;53.172;6.598;2023-03-15T11:16:58;8.90;99.90
51853;DHT22;37894;53.172;6.598;2023-03-15T11:19:28;9.20;99.90
51853;DHT22;37894;53.172;6.598;2023-03-15T11:21:57;9.40;99.90
51853;DHT22;37894;53.172;6.598;2023-03-15T11:24:25;9.20;99.90
51853;DHT22;37894;53.172;6.598;2023-03-15T11:26:53;10.20;99.90
51853;DHT22;37894;53.172;6.598;2023-03-15T11:31:45;9.60;99.90
51853;DHT22;37894;53.172;6.598;2023-03-15T11:37:06;9.90;99.90
51853;DHT22;37894;53.172;6.598;2023-03-15T11:39:48;11.20;99.90
51853;DHT22;37894;53.172;6.598;2023-03-15T11:42:21;10.40;99.90
51853;DHT22;37894;53.172;6.598;2023-03-15T11:44:52;10.70;99.90
51853;DHT22;37894;53.172;6.598;2023-03-15T11:47:29;11.00;99.90
51853;DHT22;37894;53.172;6.598;2023-03-15T11:49:57;11.00;99.90
51853;DHT22;37894;53.172;6.598;2023-03-15T11:52:26;11.30;99.90
51853;DHT22;37894;53.172;6.598;2023-03-15T11:54:56;11.30;99.90
51853;DHT22;37894;53.172;6.598;2023-03-15T11:59:57;11.50;97.30
51853;DHT22;37894;53.172;6.598;2023-03-15T12:05:48;11.80;94.80
51853;DHT22;37894;53.172;6.598;2023-03-15T12:16:25;11.90;91.40
51853;DHT22;37894;53.172;6.598;2023-03-15T12:18:52;12.30;93.20
51853;DHT22;37894;53.172;6.598;2023-03-15T12:21:34;12.50;89.60
51853;DHT22;37894;53.172;6.598;2023-03-15T12:24:07;12.70;92.00
51853;DHT22;37894;53.172;6.598;2023-03-15T12:26:48;12.10;83.80
51853;DHT22;37894;53.172;6.598;2023-03-15T12:29:22;12.10;92.40
51853;DHT22;37894;53.172;6.598;2023-03-15T12:39:47;11.70;90.30
51853;DHT22;37894;53.172;6.598;2023-03-15T12:47:46;11.30;87.90
51853;DHT22;37894;53.172;6.598;2023-03-15T12:50:43;10.60;81.80
51853;DHT22;37894;53.172;6.598;2023-03-15T12:53:35;11.00;90.90
51853;DHT22;37894;53.172;6.598;2023-03-15T12:56:26;9.70;85.70
51853;DHT22;37894;53.172;6.598;2023-03-15T12:58:55;9.20;92.10
51853;DHT22;37894;53.172;6.598;2023-03-15T13:01:24;9.10;93.10
51853;DHT22;37894;53.172;6.598;2023-03-15T13:03:54;9.10;93.10
51853;DHT22;37894;53.172;6.598;2023-03-15T13:06:42;9.20;93.20
51853;DHT22;37894;53.172;6.598;2023-03-15T13:09:18;9.60;92.90
51853;DHT22;37894;53.172;6.598;2023-03-15T13:17:50;10.70;91.20
51853;DHT22;37894;53.172;6.598;2023-03-15T13:20:42;10.40;91.70
51853;DHT22;37894;53.172;6.598;2023-03-15T13:23:20;10.10;92.20
51853;DHT22;37894;53.172;6.598;2023-03-15T13:28:41;9.90;89.90
51853;DHT22;37894;53.172;6.598;2023-03-15T13:31:22;9.80;93.20
51853;DHT22;37894;53.172;6.598;2023-03-15T13:33:50;9.80;92.20
51853;DHT22;37894;53.172;6.598;2023-03-15T13:36:56;9.90;90.00
51853;DHT22;37894;53.172;6.598;2023-03-15T13:39:18;9.70;89.20
51853;DHT22;37894;53.172;6.598;2023-03-15T13:41:45;9.50;92.90
51853;DHT22;37894;53.172;6.598;2023-03-15T13:44:22;9.30;90.20
51853;DHT22;37894;53.172;6.598;2023-03-15T13:46:49;9.20;92.20
51853;DHT22;37894;53.172;6.598;2023-03-15T13:49:16;8.30;93.20
51853;DHT22;37894;53.172;6.598;2023-03-15T13:51:42;9.20;91.40
51853;DHT22;37894;53.172;6.598;2023-03-15T13:54:23;9.10;94.90
51853;DHT22;37894;53.172;6.598;2023-03-15T13:56:59;8.70;94.50
51853;DHT22;37894;53.172;6.598;2023-03-15T13:59:45;9.20;95.50
51853;DHT22;37894;53.172;6.598;2023-03-15T14:02:17;9.60;93.80
51853;DHT22;37894;53.172;6.598;2023-03-15T14:04:48;10.50;91.90
51853;DHT22;37894;53.172;6.598;2023-03-15T14:07:28;10.50;92.60
51853;DHT22;37894;53.172;6.598;2023-03-15T14:12:53;12.60;90.20
51853;DHT22;37894;53.172;6.598;2023-03-15T14:15:35;13.30;86.80
51853;DHT22;37894;53.172;6.598;2023-03-15T14:20:40;13.40;77.80
51853;DHT22;37894;53.172;6.598;2023-03-15T14:23:15;13.60;79.60
51853;DHT22;37894;53.172;6.598;2023-03-15T14:25:42;14.50;72.70
51853;DHT22;37894;53.172;6.598;2023-03-15T14:28:14;13.30;77.80
51853;DHT22;37894;53.172;6.598;2023-03-15T14:30:41;12.40;78.00
51853;DHT22;37894;53.172;6.598;2023-03-15T14:33:29;12.50;79.90
51853;DHT22;37894;53.172;6.598;2023-03-15T14:35:59;10.90;75.50
51853;DHT22;37894;53.172;6.598;2023-03-15T14:38:29;11.30;77.30
51853;DHT22;37894;53.172;6.598;2023-03-15T14:41:17;10.20;85.30
51853;DHT22;37894;53.172;6.598;2023-03-15T14:43:43;9.90;87.10
51853;DHT22;37894;53.172;6.598;2023-03-15T14:46:09;9.00;87.70
51853;DHT22;37894;53.172;6.598;2023-03-15T14:48:35;9.10;88.60
51853;DHT22;37894;53.172;6.598;2023-03-15T14:51:02;8.60;89.40
51853;DHT22;37894;53.172;6.598;2023-03-15T14:53:34;8.70;81.20
51853;DHT22;37894;53.172;6.598;2023-03-15T14:56:01;7.90;90.40
51853;DHT22;37894;53.172;6.598;2023-03-15T14:58:27;8.30;90.90
51853;DHT22;37894;53.172;6.598;2023-03-15T15:00:54;8.40;91.50
51853;DHT22;37894;53.172;6.598;2023-03-15T15:03:46;8.30;91.70
51853;DHT22;37894;53.172;6.598;2023-03-15T15:06:14;8.30;85.70
51853;DHT22;37894;53.172;6.598;2023-03-15T15:08:43;8.20;93.30
51853;DHT22;37894;53.172;6.598;2023-03-15T15:13:36;8.30;93.80
51853;DHT22;37894;53.172;6.598;2023-03-15T15:16:03;8.10;89.70
51853;DHT22;37894;53.172;6.598;2023-03-15T15:18:31;8.20;94.40
51853;DHT22;37894;53.172;6.598;2023-03-15T15:21:02;8.00;94.70
51853;DHT22;37894;53.172;6.598;2023-03-15T15:23:30;8.30;95.10
51853;DHT22;37894;53.172;6.598;2023-03-15T15:25:59;7.90;95.60
51853;DHT22;37894;53.172;6.598;2023-03-15T15:28:27;7.60;95.60
51853;DHT22;37894;53.172;6.598;2023-03-15T15:30:53;7.70;96.20
51853;DHT22;37894;53.172;6.598;2023-03-15T15:35:52;8.30;95.70
51853;DHT22;37894;53.172;6.598;2023-03-15T15:38:19;7.80;90.30
51853;DHT22;37894;53.172;6.598;2023-03-15T15:45:38;7.50;94.10
51853;DHT22;37894;53.172;6.598;2023-03-15T15:48:04;7.80;93.50
51853;DHT22;37894;53.172;6.598;2023-03-15T15:50:34;7.00;93.90
51853;DHT22;37894;53.172;6.598;2023-03-15T15:53:03;8.60;94.40
51853;DHT22;37894;53.172;6.598;2023-03-15T15:55:36;7.60;94.30
51853;DHT22;37894;53.172;6.598;2023-03-15T15:58:04;7.50;90.20
51853;DHT22;37894;53.172;6.598;2023-03-15T16:00:30;8.30;91.80
51853;DHT22;37894;53.172;6.598;2023-03-15T16:02:57;7.40;93.40
51853;DHT22;37894;53.172;6.598;2023-03-15T16:05:27;7.40;95.20
51853;DHT22;37894;53.172;6.598;2023-03-15T16:07:54;7.30;90.90
51853;DHT22;37894;53.172;6.598;2023-03-15T16:10:24;7.40;91.30
51853;DHT22;37894;53.172;6.598;2023-03-15T16:12:52;6.50;96.10
51853;DHT22;37894;53.172;6.598;2023-03-15T16:15:19;7.20;96.70
51853;DHT22;37894;53.172;6.598;2023-03-15T16:17:45;7.10;97.10
51853;DHT22;37894;53.172;6.598;2023-03-15T16:20:12;6.60;97.20
51853;DHT22;37894;53.172;6.598;2023-03-15T16:22:40;7.10;97.60
51853;DHT22;37894;53.172;6.598;2023-03-15T16:25:19;7.00;93.30
51853;DHT22;37894;53.172;6.598;2023-03-15T16:27:55;7.10;98.60
51853;DHT22;37894;53.172;6.598;2023-03-15T16:30:23;7.10;98.90
51853;DHT22;37894;53.172;6.598;2023-03-15T16:32:50;7.00;99.20
51853;DHT22;37894;53.172;6.598;2023-03-15T16:35:28;7.00;99.70
51853;DHT22;37894;53.172;6.598;2023-03-15T16:37:56;6.80;95.40
51853;DHT22;37894;53.172;6.598;2023-03-15T16:40:31;7.10;96.70
51853;DHT22;37894;53.172;6.598;2023-03-15T16:42:57;6.50;99.90
51853;DHT22;37894;53.172;6.598;2023-03-15T16:45:23;6.90;99.90
51853;DHT22;37894;53.172;6.598;2023-03-15T16:47:49;6.60;96.60
51853;DHT22;37894;53.172;6.598;2023-03-15T16:50:15;6.90;99.90
51853;DHT22;37894;53.172;6.598;2023-03-15T16:52:43;5.60;99.90
51853;DHT22;37894;53.172;6.598;2023-03-15T16:55:14;6.00;99.90
51853;DHT22;37894;53.172;6.598;2023-03-15T16:57:41;6.60;99.90
51853;DHT22;37894;53.172;6.598;2023-03-15T17:00:12;6.70;99.90
51853;DHT22;37894;53.172;6.598;2023-03-15T17:02:41;6.40;98.90
51853;DHT22;37894;53.172;6.598;2023-03-15T17:05:09;6.30;99.90
51853;DHT22;37894;53.172;6.598;2023-03-15T17:07:36;5.30;99.50
51853;DHT22;37894;53.172;6.598;2023-03-15T17:10:09;6.20;99.90
51853;DHT22;37894;53.172;6.598;2023-03-15T17:20:00;6.00;99.90
51853;DHT22;37894;53.172;6.598;2023-03-15T17:22:26;6.00;99.90
51853;DHT22;37894;53.172;6.598;2023-03-15T17:24:52;6.60;99.90
51853;DHT22;37894;53.172;6.598;2023-03-15T17:27:25;5.70;99.90
51853;DHT22;37894;53.172;6.598;2023-03-15T17:29:54;5.40;99.90
51853;DHT22;37894;53.172;6.598;2023-03-15T17:32:20;5.60;99.90
51853;DHT22;37894;53.172;6.598;2023-03-15T17:34:46;5.30;99.90
51853;DHT22;37894;53.172;6.598;2023-03-15T17:37:16;5.30;99.90
51853;DHT22;37894;53.172;6.598;2023-03-15T17:39:43;5.10;99.90
51853;DHT22;37894;53.172;6.598;2023-03-15T17:42:13;5.40;98.20
51853;DHT22;37894;53.172;6.598;2023-03-15T17:44:40;5.30;98.20
51853;DHT22;37894;53.172;6.598;2023-03-15T17:47:09;5.30;99.90
51853;DHT22;37894;53.172;6.598;2023-03-15T17:49:35;5.20;99.90
51853;DHT22;37894;53.172;6.598;2023-03-15T17:52:01;4.80;99.90
51853;DHT22;37894;53.172;6.598;2023-03-15T17:54:28;4.90;99.90
51853;DHT22;37894;53.172;6.598;2023-03-15T17:56:54;4.40;99.90
51853;DHT22;37894;53.172;6.598;2023-03-15T17:59:21;4.50;99.90
51853;DHT22;37894;53.172;6.598;2023-03-15T18:01:49;4.70;99.90
51853;DHT22;37894;53.172;6.598;2023-03-15T18:04:17;4.60;99.90
51853;DHT22;37894;53.172;6.598;2023-03-15T18:09:14;4.50;99.90
51853;DHT22;37894;53.172;6.598;2023-03-15T18:11:41;4.30;99.90
51853;DHT22;37894;53.172;6.598;2023-03-15T18:14:12;3.50;99.90
51853;DHT22;37894;53.172;6.598;2023-03-15T18:16:38;4.30;99.90
51853;DHT22;37894;53.172;6.598;2023-03-15T18:19:04;4.10;99.90
51853;DHT22;37894;53.172;6.598;2023-03-15T18:21:30;4.00;99.90
51853;DHT22;37894;53.172;6.598;2023-03-15T18:23:56;3.20;99.90
51853;DHT22;37894;53.172;6.598;2023-03-15T18:26:22;4.00;99.90
51853;DHT22;37894;53.172;6.598;2023-03-15T18:28:48;3.80;99.90
51853;DHT22;37894;53.172;6.598;2023-03-15T18:31:20;3.70;99.90
51853;DHT22;37894;53.172;6.598;2023-03-15T18:36:13;3.20;99.90
51853;DHT22;37894;53.172;6.598;2023-03-15T18:38:42;3.60;99.90
51853;DHT22;37894;53.172;6.598;2023-03-15T18:41:26;3.40;99.90
51853;DHT22;37894;53.172;6.598;2023-03-15T18:43:51;3.50;99.90
51853;DHT22;37894;53.172;6.598;2023-03-15T18:46:22;2.80;99.90
51853;DHT22;37894;53.172;6.598;2023-03-15T18:48:52;3.50;99.90
51853;DHT22;37894;53.172;6.598;2023-03-15T18:51:19;3.60;99.90
51853;DHT22;37894;53.172;6.598;2023-03-15T18:53:48;4.20;99.90
51853;DHT22;37894;53.172;6.598;2023-03-15T18:56:32;2.80;99.90
51853;DHT22;37894;53.172;6.598;2023-03-15T18:59:00;3.40;99.90
51853;DHT22;37894;53.172;6.598;2023-03-15T19:01:26;3.70;99.90
51853;DHT22;37894;53.172;6.598;2023-03-15T19:03:52;3.20;99.90
51853;DHT22;37894;53.172;6.598;2023-03-15T19:06:19;3.10;99.90
51853;DHT22;37894;53.172;6.598;2023-03-15T19:08:45;3.20;99.90
51853;DHT22;37894;53.172;6.598;2023-03-15T19:16:05;3.10;99.90
51853;DHT22;37894;53.172;6.598;2023-03-15T19:20:58;3.00;99.90
51853;DHT22;37894;53.172;6.598;2023-03-15T19:23:24;2.70;99.90
51853;DHT22;37894;53.172;6.598;2023-03-15T19:28:16;2.70;99.90
51853;DHT22;37894;53.172;6.598;2023-03-15T19:30:42;2.50;99.90
51853;DHT22;37894;53.172;6.598;2023-03-15T19:33:08;2.40;99.90
51853;DHT22;37894;53.172;6.598;2023-03-15T19:35:33;2.20;99.90
51853;DHT22;37894;53.172;6.598;2023-03-15T19:37:59;2.60;99.90
51853;DHT22;37894;53.172;6.598;2023-03-15T19:42:51;2.60;99.90